Terminal Aerodrome Forecast
Issued by NWS Blacksburg, VA

Home | Current Version | Previous Version | Text Only | Print | Product List | Glossary On
Versions: 1 2 3 4 5 6 7 8 9 10 11 12 13 14 15 16 17 18 19 20 21 22 23 24 25 26 27 28 29 30 31 32 33 34 35
000
FTUS41 KRNK 211140
TAFROA
TAF
KROA 211140Z 2112/2212 VRB03KT P6SM SCT150
     FM211500 30008G16KT P6SM SCT050 BKN250
      TEMPO 2121/2123 28015G25KT 5SM TSRA OVC050CB
     FM212300 27006KT P6SM VCTS BKN060CB
     FM220600 27003KT P6SM SCT100 BKN250=

USA.gov is the U.S. government's official web portal to all federal, state and local government web resources and services.